sensor_id;sensor_type;location;lat;lon;timestamp;P1;durP1;ratioP1;P2;durP2;ratioP2
75554;SDS011;66087;53.126;17.960;2023-07-29T00:02:17;7.80;;;4.30;;
75554;SDS011;66087;53.126;17.960;2023-07-29T00:04:44;7.30;;;3.80;;
75554;SDS011;66087;53.126;17.960;2023-07-29T00:07:10;6.10;;;4.10;;
75554;SDS011;66087;53.126;17.960;2023-07-29T00:09:40;7.00;;;4.20;;
75554;SDS011;66087;53.126;17.960;2023-07-29T00:12:07;9.30;;;4.00;;
75554;SDS011;66087;53.126;17.960;2023-07-29T00:14:34;7.00;;;4.20;;
75554;SDS011;66087;53.126;17.960;2023-07-29T00:17:00;7.20;;;4.00;;
75554;SDS011;66087;53.126;17.960;2023-07-29T00:19:27;7.60;;;3.90;;
75554;SDS011;66087;53.126;17.960;2023-07-29T00:21:54;9.50;;;4.90;;
75554;SDS011;66087;53.126;17.960;2023-07-29T00:24:21;7.80;;;4.90;;
75554;SDS011;66087;53.126;17.960;2023-07-29T00:26:48;7.50;;;4.90;;
75554;SDS011;66087;53.126;17.960;2023-07-29T00:29:14;7.20;;;3.60;;
75554;SDS011;66087;53.126;17.960;2023-07-29T00:31:41;7.90;;;4.30;;
75554;SDS011;66087;53.126;17.960;2023-07-29T00:34:07;7.50;;;4.90;;
75554;SDS011;66087;53.126;17.960;2023-07-29T00:36:36;7.80;;;4.60;;
75554;SDS011;66087;53.126;17.960;2023-07-29T00:39:02;7.10;;;3.90;;
75554;SDS011;66087;53.126;17.960;2023-07-29T00:41:29;6.50;;;4.20;;
75554;SDS011;66087;53.126;17.960;2023-07-29T00:43:56;6.30;;;3.80;;
75554;SDS011;66087;53.126;17.960;2023-07-29T00:46:42;6.50;;;4.20;;
75554;SDS011;66087;53.126;17.960;2023-07-29T00:49:11;5.70;;;3.60;;
75554;SDS011;66087;53.126;17.960;2023-07-29T00:51:38;7.00;;;4.70;;
75554;SDS011;66087;53.126;17.960;2023-07-29T00:54:10;6.50;;;3.80;;
75554;SDS011;66087;53.126;17.960;2023-07-29T00:56:36;5.50;;;3.40;;
75554;SDS011;66087;53.126;17.960;2023-07-29T00:59:03;6.90;;;3.80;;
75554;SDS011;66087;53.126;17.960;2023-07-29T01:01:31;6.80;;;4.20;;
75554;SDS011;66087;53.126;17.960;2023-07-29T01:03:58;5.90;;;3.00;;
75554;SDS011;66087;53.126;17.960;2023-07-29T01:06:37;6.50;;;4.00;;
75554;SDS011;66087;53.126;17.960;2023-07-29T01:09:21;7.10;;;3.90;;
75554;SDS011;66087;53.126;17.960;2023-07-29T01:12:09;6.80;;;4.60;;
75554;SDS011;66087;53.126;17.960;2023-07-29T01:14:46;6.80;;;4.60;;
75554;SDS011;66087;53.126;17.960;2023-07-29T01:17:22;7.50;;;3.90;;
75554;SDS011;66087;53.126;17.960;2023-07-29T01:22:38;6.40;;;4.30;;
75554;SDS011;66087;53.126;17.960;2023-07-29T01:25:06;6.90;;;4.20;;
75554;SDS011;66087;53.126;17.960;2023-07-29T01:27:33;6.90;;;3.90;;
75554;SDS011;66087;53.126;17.960;2023-07-29T01:30:00;7.10;;;4.00;;
75554;SDS011;66087;53.126;17.960;2023-07-29T01:32:34;7.50;;;4.50;;
75554;SDS011;66087;53.126;17.960;2023-07-29T01:35:15;6.60;;;4.00;;
75554;SDS011;66087;53.126;17.960;2023-07-29T01:37:55;6.80;;;4.60;;
75554;SDS011;66087;53.126;17.960;2023-07-29T01:40:26;7.10;;;4.60;;
75554;SDS011;66087;53.126;17.960;2023-07-29T01:42:54;8.10;;;4.40;;
75554;SDS011;66087;53.126;17.960;2023-07-29T01:45:24;8.10;;;4.30;;
75554;SDS011;66087;53.126;17.960;2023-07-29T01:47:58;7.20;;;4.60;;
75554;SDS011;66087;53.126;17.960;2023-07-29T01:50:25;6.70;;;4.20;;
75554;SDS011;66087;53.126;17.960;2023-07-29T01:52:53;8.00;;;4.20;;
75554;SDS011;66087;53.126;17.960;2023-07-29T01:55:20;7.20;;;4.10;;
75554;SDS011;66087;53.126;17.960;2023-07-29T01:57:46;8.30;;;4.30;;
75554;SDS011;66087;53.126;17.960;2023-07-29T02:00:13;6.30;;;3.50;;
75554;SDS011;66087;53.126;17.960;2023-07-29T02:02:41;7.50;;;4.20;;
75554;SDS011;66087;53.126;17.960;2023-07-29T02:05:08;6.60;;;4.20;;
75554;SDS011;66087;53.126;17.960;2023-07-29T02:07:35;6.30;;;3.90;;
75554;SDS011;66087;53.126;17.960;2023-07-29T02:10:03;6.60;;;3.80;;
75554;SDS011;66087;53.126;17.960;2023-07-29T02:12:30;7.10;;;4.50;;
75554;SDS011;66087;53.126;17.960;2023-07-29T02:14:56;7.60;;;4.60;;
75554;SDS011;66087;53.126;17.960;2023-07-29T02:17:25;6.70;;;4.40;;
75554;SDS011;66087;53.126;17.960;2023-07-29T02:19:54;6.20;;;3.40;;
75554;SDS011;66087;53.126;17.960;2023-07-29T02:22:20;5.70;;;3.60;;
75554;SDS011;66087;53.126;17.960;2023-07-29T02:24:48;6.60;;;3.50;;
75554;SDS011;66087;53.126;17.960;2023-07-29T02:27:16;7.00;;;4.60;;
75554;SDS011;66087;53.126;17.960;2023-07-29T02:29:43;6.80;;;4.10;;
75554;SDS011;66087;53.126;17.960;2023-07-29T02:32:09;6.60;;;4.20;;
75554;SDS011;66087;53.126;17.960;2023-07-29T02:34:36;7.40;;;3.90;;
75554;SDS011;66087;53.126;17.960;2023-07-29T02:37:04;6.90;;;3.80;;
75554;SDS011;66087;53.126;17.960;2023-07-29T02:39:31;6.40;;;4.00;;
75554;SDS011;66087;53.126;17.960;2023-07-29T02:41:58;7.00;;;3.70;;
75554;SDS011;66087;53.126;17.960;2023-07-29T02:44:28;5.70;;;3.50;;
75554;SDS011;66087;53.126;17.960;2023-07-29T02:46:54;5.40;;;3.30;;
75554;SDS011;66087;53.126;17.960;2023-07-29T02:49:22;5.60;;;3.30;;
75554;SDS011;66087;53.126;17.960;2023-07-29T02:51:50;6.30;;;4.20;;
75554;SDS011;66087;53.126;17.960;2023-07-29T02:54:17;8.10;;;3.90;;
75554;SDS011;66087;53.126;17.960;2023-07-29T02:56:43;7.20;;;4.50;;
75554;SDS011;66087;53.126;17.960;2023-07-29T02:59:10;6.20;;;4.10;;
75554;SDS011;66087;53.126;17.960;2023-07-29T03:01:36;6.50;;;4.20;;
75554;SDS011;66087;53.126;17.960;2023-07-29T03:04:03;6.80;;;3.90;;
75554;SDS011;66087;53.126;17.960;2023-07-29T03:06:30;7.70;;;4.50;;
75554;SDS011;66087;53.126;17.960;2023-07-29T03:08:57;6.90;;;3.90;;
75554;SDS011;66087;53.126;17.960;2023-07-29T03:11:24;6.60;;;4.10;;
75554;SDS011;66087;53.126;17.960;2023-07-29T03:13:58;7.10;;;3.90;;
75554;SDS011;66087;53.126;17.960;2023-07-29T03:16:24;7.70;;;3.90;;
75554;SDS011;66087;53.126;17.960;2023-07-29T03:18:54;7.70;;;4.80;;
75554;SDS011;66087;53.126;17.960;2023-07-29T03:21:21;7.70;;;4.90;;
75554;SDS011;66087;53.126;17.960;2023-07-29T03:23:48;7.50;;;4.30;;
75554;SDS011;66087;53.126;17.960;2023-07-29T03:26:14;6.60;;;4.20;;
75554;SDS011;66087;53.126;17.960;2023-07-29T03:28:42;5.90;;;3.50;;
75554;SDS011;66087;53.126;17.960;2023-07-29T03:31:11;6.00;;;3.80;;
75554;SDS011;66087;53.126;17.960;2023-07-29T03:33:38;7.70;;;4.30;;
75554;SDS011;66087;53.126;17.960;2023-07-29T03:36:05;5.50;;;3.20;;
75554;SDS011;66087;53.126;17.960;2023-07-29T03:38:34;6.10;;;3.80;;
75554;SDS011;66087;53.126;17.960;2023-07-29T03:41:01;6.60;;;3.80;;
75554;SDS011;66087;53.126;17.960;2023-07-29T03:43:29;7.70;;;4.10;;
75554;SDS011;66087;53.126;17.960;2023-07-29T03:45:56;7.10;;;3.80;;
75554;SDS011;66087;53.126;17.960;2023-07-29T03:48:24;8.80;;;3.70;;
75554;SDS011;66087;53.126;17.960;2023-07-29T03:50:51;6.30;;;3.70;;
75554;SDS011;66087;53.126;17.960;2023-07-29T03:53:37;6.80;;;3.80;;
75554;SDS011;66087;53.126;17.960;2023-07-29T03:56:04;6.60;;;3.70;;
75554;SDS011;66087;53.126;17.960;2023-07-29T03:58:33;5.70;;;3.40;;
75554;SDS011;66087;53.126;17.960;2023-07-29T04:00:59;7.10;;;4.50;;
75554;SDS011;66087;53.126;17.960;2023-07-29T04:03:27;6.60;;;4.30;;
75554;SDS011;66087;53.126;17.960;2023-07-29T04:05:57;10.20;;;4.10;;
75554;SDS011;66087;53.126;17.960;2023-07-29T04:08:26;7.40;;;4.00;;
75554;SDS011;66087;53.126;17.960;2023-07-29T04:10:53;6.90;;;3.80;;
75554;SDS011;66087;53.126;17.960;2023-07-29T04:13:20;7.40;;;3.90;;
75554;SDS011;66087;53.126;17.960;2023-07-29T04:15:46;7.10;;;4.30;;
75554;SDS011;66087;53.126;17.960;2023-07-29T04:18:13;6.10;;;3.40;;
75554;SDS011;66087;53.126;17.960;2023-07-29T04:21:03;6.90;;;4.00;;
75554;SDS011;66087;53.126;17.960;2023-07-29T04:23:29;7.70;;;4.60;;
75554;SDS011;66087;53.126;17.960;2023-07-29T04:25:56;7.20;;;4.60;;
75554;SDS011;66087;53.126;17.960;2023-07-29T04:28:23;7.00;;;3.90;;
75554;SDS011;66087;53.126;17.960;2023-07-29T04:30:50;6.90;;;4.30;;
75554;SDS011;66087;53.126;17.960;2023-07-29T04:33:16;7.20;;;4.50;;
75554;SDS011;66087;53.126;17.960;2023-07-29T04:35:43;7.80;;;4.40;;
75554;SDS011;66087;53.126;17.960;2023-07-29T04:38:10;6.80;;;4.20;;
75554;SDS011;66087;53.126;17.960;2023-07-29T04:40:36;6.70;;;4.20;;
75554;SDS011;66087;53.126;17.960;2023-07-29T04:43:04;7.80;;;4.60;;
75554;SDS011;66087;53.126;17.960;2023-07-29T04:45:31;7.60;;;4.80;;
75554;SDS011;66087;53.126;17.960;2023-07-29T04:48:01;6.80;;;4.30;;
75554;SDS011;66087;53.126;17.960;2023-07-29T04:50:27;7.50;;;4.30;;
75554;SDS011;66087;53.126;17.960;2023-07-29T04:52:54;7.60;;;4.60;;
75554;SDS011;66087;53.126;17.960;2023-07-29T04:55:22;7.50;;;4.80;;
75554;SDS011;66087;53.126;17.960;2023-07-29T04:57:50;7.70;;;4.90;;
75554;SDS011;66087;53.126;17.960;2023-07-29T05:00:18;7.60;;;4.80;;
75554;SDS011;66087;53.126;17.960;2023-07-29T05:02:45;7.50;;;4.80;;
75554;SDS011;66087;53.126;17.960;2023-07-29T05:05:12;8.10;;;4.80;;
75554;SDS011;66087;53.126;17.960;2023-07-29T05:07:40;8.70;;;5.60;;
75554;SDS011;66087;53.126;17.960;2023-07-29T05:10:08;7.80;;;4.80;;
75554;SDS011;66087;53.126;17.960;2023-07-29T05:12:38;8.50;;;4.80;;
75554;SDS011;66087;53.126;17.960;2023-07-29T05:15:10;8.80;;;5.10;;
75554;SDS011;66087;53.126;17.960;2023-07-29T05:17:37;7.60;;;4.80;;
75554;SDS011;66087;53.126;17.960;2023-07-29T05:20:21;7.90;;;5.20;;
75554;SDS011;66087;53.126;17.960;2023-07-29T05:22:48;8.00;;;5.50;;
75554;SDS011;66087;53.126;17.960;2023-07-29T05:25:15;8.80;;;5.20;;
75554;SDS011;66087;53.126;17.960;2023-07-29T05:27:43;8.40;;;5.10;;
75554;SDS011;66087;53.126;17.960;2023-07-29T05:30:16;8.20;;;5.30;;
75554;SDS011;66087;53.126;17.960;2023-07-29T05:32:47;8.00;;;5.30;;
75554;SDS011;66087;53.126;17.960;2023-07-29T05:35:14;8.90;;;5.20;;
75554;SDS011;66087;53.126;17.960;2023-07-29T05:37:42;8.40;;;5.20;;
75554;SDS011;66087;53.126;17.960;2023-07-29T05:40:27;7.80;;;5.10;;
75554;SDS011;66087;53.126;17.960;2023-07-29T05:42:54;8.10;;;4.60;;
75554;SDS011;66087;53.126;17.960;2023-07-29T05:45:22;7.70;;;5.00;;
75554;SDS011;66087;53.126;17.960;2023-07-29T05:47:57;8.10;;;5.80;;
75554;SDS011;66087;53.126;17.960;2023-07-29T05:50:31;8.90;;;5.70;;
75554;SDS011;66087;53.126;17.960;2023-07-29T05:52:58;7.50;;;5.00;;
75554;SDS011;66087;53.126;17.960;2023-07-29T05:55:25;7.80;;;5.60;;
75554;SDS011;66087;53.126;17.960;2023-07-29T05:58:01;7.50;;;5.10;;
75554;SDS011;66087;53.126;17.960;2023-07-29T06:00:31;7.10;;;4.80;;
75554;SDS011;66087;53.126;17.960;2023-07-29T06:03:00;6.70;;;4.40;;
75554;SDS011;66087;53.126;17.960;2023-07-29T06:05:27;8.10;;;5.00;;
75554;SDS011;66087;53.126;17.960;2023-07-29T06:07:55;7.10;;;4.50;;
75554;SDS011;66087;53.126;17.960;2023-07-29T06:10:23;6.40;;;4.50;;
75554;SDS011;66087;53.126;17.960;2023-07-29T06:12:50;7.30;;;4.90;;
75554;SDS011;66087;53.126;17.960;2023-07-29T06:15:34;7.40;;;4.20;;
75554;SDS011;66087;53.126;17.960;2023-07-29T06:18:05;6.10;;;3.80;;
75554;SDS011;66087;53.126;17.960;2023-07-29T06:20:32;7.70;;;4.10;;
75554;SDS011;66087;53.126;17.960;2023-07-29T06:23:18;7.80;;;4.70;;
75554;SDS011;66087;53.126;17.960;2023-07-29T06:25:45;7.40;;;4.60;;
75554;SDS011;66087;53.126;17.960;2023-07-29T06:28:14;6.30;;;3.70;;
75554;SDS011;66087;53.126;17.960;2023-07-29T06:30:40;6.40;;;4.10;;
75554;SDS011;66087;53.126;17.960;2023-07-29T06:33:07;6.70;;;3.80;;
75554;SDS011;66087;53.126;17.960;2023-07-29T06:35:41;6.70;;;4.10;;
75554;SDS011;66087;53.126;17.960;2023-07-29T06:38:11;5.90;;;4.50;;
75554;SDS011;66087;53.126;17.960;2023-07-29T06:40:38;5.50;;;3.40;;
75554;SDS011;66087;53.126;17.960;2023-07-29T06:43:04;7.30;;;4.00;;
75554;SDS011;66087;53.126;17.960;2023-07-29T06:45:31;6.30;;;4.20;;
75554;SDS011;66087;53.126;17.960;2023-07-29T06:48:01;5.70;;;3.70;;
75554;SDS011;66087;53.126;17.960;2023-07-29T06:50:28;7.10;;;3.30;;
75554;SDS011;66087;53.126;17.960;2023-07-29T06:52:55;6.10;;;3.40;;
75554;SDS011;66087;53.126;17.960;2023-07-29T06:55:21;5.10;;;3.20;;
75554;SDS011;66087;53.126;17.960;2023-07-29T06:57:48;5.30;;;3.30;;
75554;SDS011;66087;53.126;17.960;2023-07-29T07:00:15;5.80;;;3.00;;
75554;SDS011;66087;53.126;17.960;2023-07-29T07:02:41;5.70;;;3.20;;
75554;SDS011;66087;53.126;17.960;2023-07-29T07:05:12;5.10;;;3.50;;
75554;SDS011;66087;53.126;17.960;2023-07-29T07:07:43;5.20;;;3.30;;
75554;SDS011;66087;53.126;17.960;2023-07-29T07:10:16;5.90;;;3.30;;
75554;SDS011;66087;53.126;17.960;2023-07-29T07:12:42;5.60;;;3.40;;
75554;SDS011;66087;53.126;17.960;2023-07-29T07:15:09;4.80;;;2.70;;
75554;SDS011;66087;53.126;17.960;2023-07-29T07:17:36;4.60;;;2.90;;
75554;SDS011;66087;53.126;17.960;2023-07-29T07:20:02;4.00;;;2.70;;
75554;SDS011;66087;53.126;17.960;2023-07-29T07:22:31;4.60;;;2.60;;
75554;SDS011;66087;53.126;17.960;2023-07-29T07:25:01;3.80;;;2.00;;
75554;SDS011;66087;53.126;17.960;2023-07-29T07:27:27;4.00;;;2.70;;
75554;SDS011;66087;53.126;17.960;2023-07-29T07:29:58;4.90;;;2.60;;
75554;SDS011;66087;53.126;17.960;2023-07-29T07:32:25;3.80;;;1.90;;
75554;SDS011;66087;53.126;17.960;2023-07-29T07:34:52;3.90;;;2.30;;
75554;SDS011;66087;53.126;17.960;2023-07-29T07:37:39;3.40;;;1.70;;
75554;SDS011;66087;53.126;17.960;2023-07-29T07:40:10;3.80;;;2.10;;
75554;SDS011;66087;53.126;17.960;2023-07-29T07:42:37;3.10;;;1.60;;
75554;SDS011;66087;53.126;17.960;2023-07-29T07:45:08;3.50;;;1.80;;
75554;SDS011;66087;53.126;17.960;2023-07-29T07:47:34;3.40;;;1.80;;
75554;SDS011;66087;53.126;17.960;2023-07-29T07:50:03;3.80;;;2.20;;
75554;SDS011;66087;53.126;17.960;2023-07-29T07:52:30;3.20;;;1.80;;
75554;SDS011;66087;53.126;17.960;2023-07-29T07:54:58;3.50;;;1.70;;
75554;SDS011;66087;53.126;17.960;2023-07-29T07:57:25;3.00;;;1.50;;
75554;SDS011;66087;53.126;17.960;2023-07-29T07:59:51;4.60;;;1.70;;
75554;SDS011;66087;53.126;17.960;2023-07-29T08:02:23;2.80;;;1.60;;
75554;SDS011;66087;53.126;17.960;2023-07-29T08:04:52;2.60;;;1.20;;
75554;SDS011;66087;53.126;17.960;2023-07-29T08:07:19;3.20;;;1.60;;
75554;SDS011;66087;53.126;17.960;2023-07-29T08:09:45;3.70;;;1.50;;
75554;SDS011;66087;53.126;17.960;2023-07-29T08:12:14;2.90;;;1.70;;
75554;SDS011;66087;53.126;17.960;2023-07-29T08:14:41;3.00;;;2.00;;
75554;SDS011;66087;53.126;17.960;2023-07-29T08:17:08;3.80;;;1.80;;
75554;SDS011;66087;53.126;17.960;2023-07-29T08:19:36;3.30;;;1.80;;
75554;SDS011;66087;53.126;17.960;2023-07-29T08:22:10;3.30;;;1.60;;
75554;SDS011;66087;53.126;17.960;2023-07-29T08:24:36;4.70;;;1.80;;
75554;SDS011;66087;53.126;17.960;2023-07-29T08:27:07;3.40;;;1.70;;
75554;SDS011;66087;53.126;17.960;2023-07-29T08:29:35;2.50;;;1.40;;
75554;SDS011;66087;53.126;17.960;2023-07-29T08:32:01;2.60;;;1.30;;
75554;SDS011;66087;53.126;17.960;2023-07-29T08:34:28;2.80;;;1.80;;
75554;SDS011;66087;53.126;17.960;2023-07-29T08:37:03;3.30;;;1.60;;
75554;SDS011;66087;53.126;17.960;2023-07-29T08:39:31;2.90;;;1.60;;
75554;SDS011;66087;53.126;17.960;2023-07-29T08:42:03;3.00;;;1.80;;
75554;SDS011;66087;53.126;17.960;2023-07-29T08:44:35;3.30;;;1.80;;
75554;SDS011;66087;53.126;17.960;2023-07-29T08:47:06;3.20;;;1.80;;
75554;SDS011;66087;53.126;17.960;2023-07-29T08:49:33;2.60;;;1.50;;
75554;SDS011;66087;53.126;17.960;2023-07-29T08:52:02;3.30;;;1.60;;
75554;SDS011;66087;53.126;17.960;2023-07-29T08:54:34;3.00;;;1.70;;
75554;SDS011;66087;53.126;17.960;2023-07-29T08:57:01;2.70;;;1.70;;
75554;SDS011;66087;53.126;17.960;2023-07-29T08:59:30;2.50;;;1.60;;
75554;SDS011;66087;53.126;17.960;2023-07-29T09:01:57;2.60;;;1.60;;
75554;SDS011;66087;53.126;17.960;2023-07-29T09:04:25;3.00;;;1.80;;
75554;SDS011;66087;53.126;17.960;2023-07-29T09:06:52;2.70;;;1.80;;
75554;SDS011;66087;53.126;17.960;2023-07-29T09:09:25;2.60;;;1.60;;
75554;SDS011;66087;53.126;17.960;2023-07-29T09:11:52;2.40;;;1.50;;
75554;SDS011;66087;53.126;17.960;2023-07-29T09:14:20;3.10;;;2.00;;
75554;SDS011;66087;53.126;17.960;2023-07-29T09:16:51;2.80;;;1.70;;
75554;SDS011;66087;53.126;17.960;2023-07-29T09:19:18;2.30;;;1.40;;
75554;SDS011;66087;53.126;17.960;2023-07-29T09:21:47;2.60;;;1.50;;
75554;SDS011;66087;53.126;17.960;2023-07-29T09:24:15;3.30;;;1.90;;
75554;SDS011;66087;53.126;17.960;2023-07-29T09:26:50;2.30;;;1.40;;
75554;SDS011;66087;53.126;17.960;2023-07-29T09:29:20;2.90;;;2.00;;
75554;SDS011;66087;53.126;17.960;2023-07-29T09:34:45;2.70;;;1.60;;
75554;SDS011;66087;53.126;17.960;2023-07-29T09:37:15;3.80;;;1.50;;
75554;SDS011;66087;53.126;17.960;2023-07-29T09:39:44;2.50;;;1.80;;
75554;SDS011;66087;53.126;17.960;2023-07-29T09:42:16;3.40;;;1.70;;
75554;SDS011;66087;53.126;17.960;2023-07-29T09:44:50;2.20;;;1.30;;
75554;SDS011;66087;53.126;17.960;2023-07-29T09:47:20;3.30;;;1.80;;
75554;SDS011;66087;53.126;17.960;2023-07-29T09:49:52;2.70;;;1.60;;
75554;SDS011;66087;53.126;17.960;2023-07-29T09:52:22;2.60;;;1.50;;
75554;SDS011;66087;53.126;17.960;2023-07-29T09:54:49;2.30;;;1.60;;
75554;SDS011;66087;53.126;17.960;2023-07-29T09:57:18;3.10;;;1.80;;
75554;SDS011;66087;53.126;17.960;2023-07-29T09:59:53;2.80;;;1.60;;
75554;SDS011;66087;53.126;17.960;2023-07-29T10:02:21;2.20;;;1.20;;
75554;SDS011;66087;53.126;17.960;2023-07-29T10:04:51;2.70;;;1.60;;
75554;SDS011;66087;53.126;17.960;2023-07-29T10:07:23;3.10;;;1.80;;
75554;SDS011;66087;53.126;17.960;2023-07-29T10:09:51;3.70;;;1.50;;
75554;SDS011;66087;53.126;17.960;2023-07-29T10:12:19;2.00;;;1.30;;
75554;SDS011;66087;53.126;17.960;2023-07-29T10:14:51;3.10;;;1.20;;
75554;SDS011;66087;53.126;17.960;2023-07-29T10:17:19;2.70;;;1.30;;
75554;SDS011;66087;53.126;17.960;2023-07-29T10:19:49;2.70;;;1.30;;
75554;SDS011;66087;53.126;17.960;2023-07-29T10:22:20;2.40;;;1.30;;
75554;SDS011;66087;53.126;17.960;2023-07-29T10:24:48;2.60;;;1.90;;
75554;SDS011;66087;53.126;17.960;2023-07-29T10:27:17;1.90;;;1.10;;
75554;SDS011;66087;53.126;17.960;2023-07-29T10:29:46;2.70;;;1.60;;
75554;SDS011;66087;53.126;17.960;2023-07-29T10:32:14;2.30;;;1.40;;
75554;SDS011;66087;53.126;17.960;2023-07-29T10:34:41;2.50;;;1.30;;
75554;SDS011;66087;53.126;17.960;2023-07-29T10:37:11;2.10;;;1.00;;
75554;SDS011;66087;53.126;17.960;2023-07-29T10:39:39;2.70;;;1.30;;
75554;SDS011;66087;53.126;17.960;2023-07-29T10:42:09;2.20;;;1.40;;
75554;SDS011;66087;53.126;17.960;2023-07-29T10:44:46;1.90;;;1.40;;
75554;SDS011;66087;53.126;17.960;2023-07-29T10:47:16;2.40;;;1.50;;
75554;SDS011;66087;53.126;17.960;2023-07-29T10:49:48;1.90;;;1.20;;
75554;SDS011;66087;53.126;17.960;2023-07-29T10:55:29;1.70;;;1.00;;
75554;SDS011;66087;53.126;17.960;2023-07-29T10:58:13;2.30;;;1.70;;
75554;SDS011;66087;53.126;17.960;2023-07-29T11:00:42;3.00;;;1.30;;
75554;SDS011;66087;53.126;17.960;2023-07-29T11:03:15;2.10;;;1.20;;
75554;SDS011;66087;53.126;17.960;2023-07-29T11:05:43;1.90;;;1.30;;
75554;SDS011;66087;53.126;17.960;2023-07-29T11:08:22;1.90;;;1.10;;
75554;SDS011;66087;53.126;17.960;2023-07-29T11:11:01;2.70;;;1.40;;
75554;SDS011;66087;53.126;17.960;2023-07-29T11:13:32;2.50;;;1.00;;
75554;SDS011;66087;53.126;17.960;2023-07-29T11:16:02;2.00;;;1.10;;
75554;SDS011;66087;53.126;17.960;2023-07-29T11:18:32;2.30;;;1.30;;
75554;SDS011;66087;53.126;17.960;2023-07-29T11:21:02;2.40;;;1.10;;
75554;SDS011;66087;53.126;17.960;2023-07-29T11:23:35;2.10;;;1.40;;
75554;SDS011;66087;53.126;17.960;2023-07-29T11:26:04;2.00;;;1.00;;
75554;SDS011;66087;53.126;17.960;2023-07-29T11:28:38;1.70;;;1.00;;
75554;SDS011;66087;53.126;17.960;2023-07-29T11:31:15;1.80;;;1.20;;
75554;SDS011;66087;53.126;17.960;2023-07-29T11:33:43;1.80;;;1.20;;
75554;SDS011;66087;53.126;17.960;2023-07-29T11:36:17;2.80;;;1.10;;
75554;SDS011;66087;53.126;17.960;2023-07-29T11:38:49;1.80;;;1.00;;
75554;SDS011;66087;53.126;17.960;2023-07-29T11:41:19;1.80;;;1.10;;
75554;SDS011;66087;53.126;17.960;2023-07-29T11:43:50;2.20;;;1.00;;
75554;SDS011;66087;53.126;17.960;2023-07-29T11:46:20;1.60;;;1.20;;
75554;SDS011;66087;53.126;17.960;2023-07-29T11:48:48;2.10;;;1.60;;
75554;SDS011;66087;53.126;17.960;2023-07-29T11:51:36;2.10;;;1.00;;
75554;SDS011;66087;53.126;17.960;2023-07-29T11:54:03;3.50;;;1.10;;
75554;SDS011;66087;53.126;17.960;2023-07-29T11:56:31;3.00;;;1.60;;
75554;SDS011;66087;53.126;17.960;2023-07-29T11:59:06;3.10;;;1.10;;
75554;SDS011;66087;53.126;17.960;2023-07-29T12:01:34;2.20;;;1.40;;
75554;SDS011;66087;53.126;17.960;2023-07-29T12:04:02;2.90;;;1.40;;
75554;SDS011;66087;53.126;17.960;2023-07-29T12:06:29;1.70;;;1.10;;
75554;SDS011;66087;53.126;17.960;2023-07-29T12:08:58;3.70;;;1.00;;
75554;SDS011;66087;53.126;17.960;2023-07-29T12:11:29;1.80;;;1.20;;
75554;SDS011;66087;53.126;17.960;2023-07-29T12:14:00;3.10;;;1.50;;
75554;SDS011;66087;53.126;17.960;2023-07-29T12:16:27;1.90;;;1.30;;
75554;SDS011;66087;53.126;17.960;2023-07-29T12:19:04;1.80;;;1.40;;
75554;SDS011;66087;53.126;17.960;2023-07-29T12:21:34;2.00;;;1.30;;
75554;SDS011;66087;53.126;17.960;2023-07-29T12:24:02;3.10;;;1.70;;
75554;SDS011;66087;53.126;17.960;2023-07-29T12:26:32;2.00;;;1.60;;
75554;SDS011;66087;53.126;17.960;2023-07-29T12:28:59;1.90;;;1.20;;
75554;SDS011;66087;53.126;17.960;2023-07-29T12:31:33;2.20;;;1.70;;
75554;SDS011;66087;53.126;17.960;2023-07-29T12:34:05;3.10;;;1.70;;
75554;SDS011;66087;53.126;17.960;2023-07-29T12:39:25;2.40;;;1.60;;
75554;SDS011;66087;53.126;17.960;2023-07-29T12:41:54;3.40;;;1.50;;
75554;SDS011;66087;53.126;17.960;2023-07-29T12:44:25;2.50;;;1.80;;
75554;SDS011;66087;53.126;17.960;2023-07-29T12:46:54;3.30;;;1.60;;
75554;SDS011;66087;53.126;17.960;2023-07-29T12:49:22;2.80;;;1.50;;
75554;SDS011;66087;53.126;17.960;2023-07-29T12:51:50;2.70;;;1.40;;
75554;SDS011;66087;53.126;17.960;2023-07-29T12:54:17;2.80;;;1.70;;
75554;SDS011;66087;53.126;17.960;2023-07-29T12:56:48;2.80;;;1.80;;
75554;SDS011;66087;53.126;17.960;2023-07-29T12:59:15;2.90;;;1.60;;
75554;SDS011;66087;53.126;17.960;2023-07-29T13:01:44;3.40;;;1.70;;
75554;SDS011;66087;53.126;17.960;2023-07-29T13:04:11;3.30;;;2.00;;
75554;SDS011;66087;53.126;17.960;2023-07-29T13:06:39;2.30;;;1.70;;
75554;SDS011;66087;53.126;17.960;2023-07-29T13:09:05;3.20;;;1.70;;
75554;SDS011;66087;53.126;17.960;2023-07-29T13:11:53;4.00;;;2.20;;
75554;SDS011;66087;53.126;17.960;2023-07-29T13:14:19;2.40;;;2.00;;
75554;SDS011;66087;53.126;17.960;2023-07-29T13:16:46;2.40;;;1.70;;
75554;SDS011;66087;53.126;17.960;2023-07-29T13:19:12;2.60;;;1.80;;
75554;SDS011;66087;53.126;17.960;2023-07-29T13:21:41;2.60;;;2.10;;
75554;SDS011;66087;53.126;17.960;2023-07-29T13:24:10;2.70;;;2.30;;
75554;SDS011;66087;53.126;17.960;2023-07-29T13:26:37;3.20;;;2.60;;
75554;SDS011;66087;53.126;17.960;2023-07-29T13:29:04;3.50;;;2.20;;
75554;SDS011;66087;53.126;17.960;2023-07-29T13:31:32;2.50;;;2.10;;
75554;SDS011;66087;53.126;17.960;2023-07-29T13:34:01;2.70;;;2.00;;
75554;SDS011;66087;53.126;17.960;2023-07-29T13:36:28;2.80;;;2.10;;
75554;SDS011;66087;53.126;17.960;2023-07-29T13:38:54;2.50;;;1.70;;
75554;SDS011;66087;53.126;17.960;2023-07-29T13:41:21;4.50;;;2.00;;
75554;SDS011;66087;53.126;17.960;2023-07-29T13:43:50;2.90;;;2.10;;
75554;SDS011;66087;53.126;17.960;2023-07-29T13:46:16;2.60;;;2.20;;
75554;SDS011;66087;53.126;17.960;2023-07-29T13:49:03;3.30;;;2.10;;
75554;SDS011;66087;53.126;17.960;2023-07-29T13:51:30;2.90;;;2.20;;
75554;SDS011;66087;53.126;17.960;2023-07-29T13:53:57;3.90;;;2.50;;
75554;SDS011;66087;53.126;17.960;2023-07-29T13:56:24;3.50;;;2.50;;
75554;SDS011;66087;53.126;17.960;2023-07-29T13:58:51;2.60;;;2.40;;
75554;SDS011;66087;53.126;17.960;2023-07-29T14:01:22;3.20;;;2.90;;
75554;SDS011;66087;53.126;17.960;2023-07-29T14:03:49;3.20;;;2.60;;
75554;SDS011;66087;53.126;17.960;2023-07-29T14:06:15;3.00;;;2.70;;
75554;SDS011;66087;53.126;17.960;2023-07-29T14:08:42;3.70;;;3.20;;
75554;SDS011;66087;53.126;17.960;2023-07-29T14:11:10;3.40;;;2.60;;
75554;SDS011;66087;53.126;17.960;2023-07-29T14:13:36;3.40;;;2.90;;
75554;SDS011;66087;53.126;17.960;2023-07-29T14:16:03;2.30;;;1.90;;
75554;SDS011;66087;53.126;17.960;2023-07-29T14:18:51;3.10;;;2.30;;
75554;SDS011;66087;53.126;17.960;2023-07-29T14:21:20;3.60;;;3.30;;
75554;SDS011;66087;53.126;17.960;2023-07-29T14:23:47;2.80;;;2.40;;
75554;SDS011;66087;53.126;17.960;2023-07-29T14:26:14;2.50;;;2.00;;
75554;SDS011;66087;53.126;17.960;2023-07-29T14:28:44;2.40;;;1.80;;
75554;SDS011;66087;53.126;17.960;2023-07-29T14:31:11;2.60;;;2.10;;
75554;SDS011;66087;53.126;17.960;2023-07-29T14:33:39;3.50;;;2.30;;
75554;SDS011;66087;53.126;17.960;2023-07-29T14:36:07;2.70;;;1.80;;
75554;SDS011;66087;53.126;17.960;2023-07-29T14:38:38;2.60;;;1.50;;
75554;SDS011;66087;53.126;17.960;2023-07-29T14:41:04;2.60;;;1.90;;
75554;SDS011;66087;53.126;17.960;2023-07-29T14:43:34;3.30;;;1.90;;
75554;SDS011;66087;53.126;17.960;2023-07-29T14:46:02;7.90;;;2.10;;
75554;SDS011;66087;53.126;17.960;2023-07-29T14:48:28;3.90;;;1.70;;
75554;SDS011;66087;53.126;17.960;2023-07-29T14:50:56;4.20;;;1.80;;
75554;SDS011;66087;53.126;17.960;2023-07-29T14:53:23;2.80;;;1.90;;
75554;SDS011;66087;53.126;17.960;2023-07-29T14:55:50;3.30;;;2.00;;
75554;SDS011;66087;53.126;17.960;2023-07-29T14:58:38;4.30;;;2.50;;